createdAt,value
2023-03-03T00:01:55.191Z,27.60
2023-03-03T00:04:22.056Z,23.13
2023-03-03T00:06:48.937Z,22.17
2023-03-03T00:09:15.830Z,28.98
2023-03-03T00:11:42.733Z,31.33
2023-03-03T00:14:28.138Z,28.17
2023-03-03T00:16:57.479Z,22.73
2023-03-03T00:19:24.463Z,23.83
2023-03-03T00:21:57.789Z,30.25
2023-03-03T00:24:34.714Z,23.08
2023-03-03T00:27:23.221Z,26.95
2023-03-03T00:29:57.704Z,27.27
2023-03-03T00:32:43.780Z,26.85
2023-03-03T00:35:35.738Z,24.05
2023-03-03T00:38:19.401Z,32.80
2023-03-03T00:40:48.326Z,26.08
2023-03-03T00:43:23.938Z,29.75
2023-03-03T00:46:00.731Z,25.60
2023-03-03T00:48:51.264Z,32.42
2023-03-03T00:51:34.244Z,30.77
2023-03-03T00:54:01.318Z,23.65
2023-03-03T00:56:28.297Z,21.33
2023-03-03T00:58:55.188Z,25.15
2023-03-03T01:01:22.587Z,32.55
2023-03-03T01:03:49.650Z,27.77
2023-03-03T01:06:16.863Z,23.75
2023-03-03T01:08:43.806Z,21.85
2023-03-03T01:11:28.441Z,27.52
2023-03-03T01:13:56.954Z,20.90
2023-03-03T01:16:24.108Z,22.70
2023-03-03T01:18:51.037Z,23.83
2023-03-03T01:21:18.006Z,26.80
2023-03-03T01:23:44.916Z,28.85
2023-03-03T01:26:11.792Z,27.58
2023-03-03T01:28:38.696Z,26.67
2023-03-03T01:31:06.794Z,28.95
2023-03-03T01:33:36.275Z,28.35
2023-03-03T01:36:04.320Z,30.23
2023-03-03T01:38:31.261Z,20.55
2023-03-03T01:41:00.189Z,30.77
2023-03-03T01:43:32.846Z,26.77
2023-03-03T01:45:59.603Z,20.67
2023-03-03T01:48:44.576Z,25.25
2023-03-03T01:51:30.721Z,22.33
2023-03-03T01:54:14.678Z,17.17
2023-03-03T01:56:44.132Z,24.33
2023-03-03T01:59:29.067Z,19.30
2023-03-03T02:01:56.082Z,26.00
2023-03-03T02:04:23.481Z,23.58
2023-03-03T02:07:01.785Z,25.42
2023-03-03T02:10:07.325Z,22.05
2023-03-03T02:12:48.153Z,20.15
2023-03-03T02:15:25.459Z,28.27
2023-03-03T02:18:09.418Z,24.10
2023-03-03T02:21:02.185Z,19.50
2023-03-03T02:23:45.826Z,26.40
2023-03-03T02:26:17.409Z,23.00
2023-03-03T02:28:44.678Z,26.17
2023-03-03T02:31:18.670Z,28.20
2023-03-03T02:33:51.338Z,25.40
2023-03-03T02:36:33.151Z,31.20
2023-03-03T02:39:27.508Z,22.45
2023-03-03T02:42:16.481Z,26.67
2023-03-03T02:44:43.492Z,32.05
2023-03-03T02:47:10.570Z,21.83
2023-03-03T02:49:38.063Z,20.52
2023-03-03T02:52:10.524Z,28.23
2023-03-03T02:54:38.801Z,22.15
2023-03-03T02:57:07.127Z,23.60
2023-03-03T02:59:34.074Z,21.35
2023-03-03T03:02:01.013Z,25.92
2023-03-03T03:04:28.382Z,24.95
2023-03-03T03:06:56.240Z,30.90
2023-03-03T03:09:25.451Z,25.38
2023-03-03T03:11:53.008Z,27.70
2023-03-03T03:14:19.989Z,36.13
2023-03-03T03:16:46.902Z,33.65
2023-03-03T03:19:14.030Z,30.85
2023-03-03T03:21:41.081Z,31.50
2023-03-03T03:24:08.108Z,32.72
2023-03-03T03:26:35.025Z,27.70
2023-03-03T03:29:01.957Z,27.58
2023-03-03T03:31:28.943Z,21.85
2023-03-03T03:33:55.819Z,26.38
2023-03-03T03:36:22.865Z,25.05
2023-03-03T03:38:49.810Z,20.85
2023-03-03T03:41:16.767Z,31.02
2023-03-03T03:43:43.630Z,35.47
2023-03-03T03:46:10.637Z,28.73
2023-03-03T03:48:37.682Z,26.35
2023-03-03T03:51:05.401Z,26.38
2023-03-03T03:53:32.692Z,21.75
2023-03-03T03:55:59.678Z,26.70
2023-03-03T03:58:26.780Z,19.88
2023-03-03T04:00:54.395Z,24.60
2023-03-03T04:03:21.789Z,23.73
2023-03-03T04:05:50.948Z,21.75
2023-03-03T04:08:17.916Z,18.50
2023-03-03T04:10:44.768Z,27.88
2023-03-03T04:13:11.660Z,24.58
2023-03-03T04:15:38.603Z,20.52
2023-03-03T04:18:06.086Z,21.23
2023-03-03T04:20:33.114Z,21.33
2023-03-03T04:23:00.151Z,22.42
2023-03-03T04:25:27.270Z,19.13
2023-03-03T04:27:54.352Z,23.02
2023-03-03T04:30:21.859Z,28.17
2023-03-03T04:32:49.524Z,23.92
2023-03-03T04:35:16.490Z,23.05
2023-03-03T04:37:43.515Z,23.75
2023-03-03T04:40:11.762Z,21.90
2023-03-03T04:42:38.868Z,19.17
2023-03-03T04:45:06.957Z,19.55
2023-03-03T04:47:34.034Z,23.15
2023-03-03T04:50:01.012Z,21.30
2023-03-03T04:52:28.410Z,23.90
2023-03-03T04:54:55.673Z,18.75
2023-03-03T04:57:22.685Z,24.35
2023-03-03T04:59:49.794Z,22.77
2023-03-03T05:02:17.324Z,22.50
2023-03-03T05:04:44.352Z,24.98
2023-03-03T05:07:11.296Z,22.05
2023-03-03T05:09:38.299Z,30.52
2023-03-03T05:12:05.951Z,28.10
2023-03-03T05:14:32.938Z,24.17
2023-03-03T05:17:00.015Z,27.17
2023-03-03T05:19:27.401Z,21.67
2023-03-03T05:21:54.763Z,31.13
2023-03-03T05:24:21.671Z,19.45
2023-03-03T05:26:49.690Z,23.23
2023-03-03T05:29:16.694Z,25.00
2023-03-03T05:31:45.573Z,26.50
2023-03-03T05:34:12.720Z,23.70
2023-03-03T05:36:39.670Z,32.28
2023-03-03T05:39:06.712Z,23.33
2023-03-03T05:41:36.688Z,31.90
2023-03-03T05:44:04.048Z,27.48
2023-03-03T05:46:31.035Z,33.53
2023-03-03T05:48:57.951Z,24.77
2023-03-03T05:51:24.832Z,22.80
2023-03-03T05:53:51.678Z,29.77
2023-03-03T05:56:18.563Z,24.80
2023-03-03T05:58:46.126Z,23.60
2023-03-03T06:01:13.128Z,23.30
2023-03-03T06:03:40.028Z,22.52
2023-03-03T06:06:09.007Z,24.08
2023-03-03T06:08:35.932Z,27.02
2023-03-03T06:11:03.249Z,27.45
2023-03-03T06:13:30.285Z,25.15
2023-03-03T06:15:57.366Z,21.70
2023-03-03T06:18:24.358Z,25.50
2023-03-03T06:20:53.903Z,23.60
2023-03-03T06:23:22.351Z,28.92
2023-03-03T06:25:49.296Z,27.42
2023-03-03T06:28:16.194Z,24.00
2023-03-03T06:30:43.118Z,24.33
2023-03-03T06:33:09.999Z,25.00
2023-03-03T06:35:37.721Z,23.20
2023-03-03T06:38:04.675Z,21.33
2023-03-03T06:40:31.597Z,22.88
2023-03-03T06:42:58.433Z,27.30
2023-03-03T06:45:25.301Z,28.13
2023-03-03T06:47:52.166Z,27.85
2023-03-03T06:50:21.475Z,23.08
2023-03-03T06:52:48.686Z,31.55
2023-03-03T06:55:23.796Z,28.40
2023-03-03T06:57:50.877Z,31.80
2023-03-03T07:00:30.715Z,36.15
2023-03-03T07:03:12.508Z,38.55
2023-03-03T07:05:39.443Z,30.02
2023-03-03T07:08:32.092Z,34.97
2023-03-03T07:11:16.115Z,29.10
2023-03-03T07:13:53.576Z,30.65
2023-03-03T07:16:27.986Z,28.58
2023-03-03T07:18:54.795Z,26.33
2023-03-03T07:21:36.815Z,28.50
2023-03-03T07:24:28.745Z,29.73
2023-03-03T07:27:07.675Z,31.73
2023-03-03T07:29:35.556Z,27.67
2023-03-03T07:32:03.000Z,23.60
2023-03-03T07:34:47.727Z,22.97
2023-03-03T07:37:30.884Z,30.67
2023-03-03T07:40:00.881Z,23.90
2023-03-03T07:42:41.961Z,26.63
2023-03-03T07:45:37.654Z,27.27
2023-03-03T07:48:13.445Z,31.00
2023-03-03T07:50:41.697Z,31.90
2023-03-03T07:53:34.578Z,33.70
2023-03-03T07:56:02.131Z,30.93
2023-03-03T07:58:40.682Z,24.10
2023-03-03T08:01:43.414Z,19.57
2023-03-03T08:04:38.997Z,25.00
2023-03-03T08:07:21.333Z,24.93
2023-03-03T08:09:59.994Z,25.77
2023-03-03T08:12:47.091Z,26.43
2023-03-03T08:15:31.165Z,19.83
2023-03-03T08:18:01.690Z,23.80
2023-03-03T08:20:45.422Z,19.40
2023-03-03T08:23:16.788Z,22.60
2023-03-03T08:25:44.717Z,24.10
2023-03-03T08:28:13.898Z,21.93
2023-03-03T08:30:41.710Z,25.73
2023-03-03T08:33:09.041Z,21.20
2023-03-03T08:35:36.527Z,22.80
2023-03-03T08:38:05.028Z,26.37
2023-03-03T08:40:33.122Z,22.77
2023-03-03T08:43:00.118Z,21.57
2023-03-03T08:45:27.779Z,27.37
2023-03-03T08:47:55.447Z,22.83
2023-03-03T08:50:23.248Z,23.13
2023-03-03T08:52:50.452Z,25.67
2023-03-03T08:55:18.217Z,22.00
2023-03-03T08:57:45.174Z,19.57
2023-03-03T09:03:35.710Z,25.90
2023-03-03T09:06:02.724Z,22.07
2023-03-03T09:08:29.662Z,22.13
2023-03-03T09:10:56.609Z,24.00
2023-03-03T09:13:23.494Z,22.10
2023-03-03T09:15:50.691Z,20.70
2023-03-03T09:18:45.816Z,24.00
2023-03-03T09:21:33.050Z,20.57
2023-03-03T09:24:00.857Z,25.20
2023-03-03T09:26:39.618Z,23.20
2023-03-03T09:29:15.437Z,18.80
2023-03-03T09:31:54.831Z,29.63
2023-03-03T09:34:36.528Z,23.13
2023-03-03T09:37:37.236Z,22.07
2023-03-03T09:41:09.740Z,27.17
2023-03-03T09:44:35.565Z,21.50
2023-03-03T09:48:02.458Z,19.37
2023-03-03T09:51:13.370Z,21.03
2023-03-03T09:54:16.877Z,29.53
2023-03-03T09:57:17.449Z,25.80
2023-03-03T10:00:49.963Z,23.00
2023-03-03T10:04:12.325Z,20.77
2023-03-03T10:07:04.047Z,23.33
2023-03-03T10:10:21.210Z,19.97
2023-03-03T10:13:20.511Z,22.37
2023-03-03T10:16:34.049Z,19.70
2023-03-03T10:19:35.922Z,24.77
2023-03-03T10:22:20.403Z,24.07
2023-03-03T10:25:20.853Z,26.10
2023-03-03T10:28:06.006Z,24.83
2023-03-03T10:31:05.610Z,24.90
2023-03-03T10:34:06.174Z,20.97
2023-03-03T10:37:20.679Z,22.00
2023-03-03T10:40:22.798Z,21.50
2023-03-03T10:43:35.193Z,21.00
2023-03-03T10:46:42.004Z,25.87
2023-03-03T10:49:51.529Z,27.70
2023-03-03T10:52:51.608Z,19.90
2023-03-03T10:55:50.116Z,23.73
2023-03-03T10:58:57.986Z,22.53
2023-03-03T11:01:56.868Z,23.13
2023-03-03T11:04:51.397Z,21.60
2023-03-03T11:07:44.149Z,24.03
2023-03-03T11:10:47.976Z,25.67
2023-03-03T11:14:00.241Z,26.93
2023-03-03T11:17:11.557Z,19.83
2023-03-03T11:20:09.618Z,25.90
2023-03-03T11:23:07.572Z,27.53
2023-03-03T11:25:55.585Z,23.43
2023-03-03T11:28:58.884Z,20.03
2023-03-03T11:32:18.036Z,21.70
2023-03-03T11:35:16.645Z,25.00
2023-03-03T11:38:04.263Z,22.43
2023-03-03T11:40:58.928Z,22.13
2023-03-03T11:43:47.188Z,19.83
2023-03-03T11:46:25.266Z,19.93
2023-03-03T11:49:18.407Z,23.80
2023-03-03T11:52:53.071Z,20.10
2023-03-03T11:55:36.067Z,23.77
2023-03-03T11:58:50.630Z,21.60
2023-03-03T12:01:57.841Z,21.60
2023-03-03T12:04:57.178Z,18.93
2023-03-03T12:08:01.702Z,17.90
2023-03-03T12:11:07.692Z,19.60
2023-03-03T12:14:05.988Z,20.00
2023-03-03T12:17:11.795Z,21.23
2023-03-03T12:20:05.529Z,21.07
2023-03-03T12:22:45.854Z,17.37
2023-03-03T12:25:40.826Z,23.43
2023-03-03T12:28:27.008Z,20.90
2023-03-03T12:31:15.097Z,22.67
2023-03-03T12:33:54.865Z,19.40
2023-03-03T12:37:07.422Z,20.67
2023-03-03T12:39:47.637Z,17.30
2023-03-03T12:42:49.117Z,23.47
2023-03-03T12:46:19.606Z,20.47
2023-03-03T12:48:48.267Z,21.67
2023-03-03T12:51:28.100Z,23.53
2023-03-03T12:54:19.941Z,21.17
2023-03-03T12:57:11.037Z,24.43
2023-03-03T13:00:24.267Z,23.77
2023-03-03T13:03:21.778Z,19.37
2023-03-03T13:06:22.091Z,20.20
2023-03-03T13:09:00.863Z,18.47
2023-03-03T13:11:50.930Z,19.90
2023-03-03T13:14:47.360Z,18.57
2023-03-03T13:17:34.763Z,21.83
2023-03-03T13:20:12.837Z,16.90
2023-03-03T13:23:04.034Z,19.60
2023-03-03T13:25:57.620Z,19.43
2023-03-03T13:28:56.630Z,21.40
2023-03-03T13:31:39.297Z,20.97
2023-03-03T13:34:40.285Z,22.43
2023-03-03T13:37:24.431Z,19.80
2023-03-03T13:40:03.430Z,21.40
2023-03-03T13:42:56.085Z,22.27
2023-03-03T13:46:05.662Z,19.77
2023-03-03T13:49:18.452Z,16.80
2023-03-03T13:52:26.898Z,23.43
2023-03-03T13:55:38.878Z,19.17
2023-03-03T13:58:57.000Z,20.87
2023-03-03T14:01:50.593Z,21.17
2023-03-03T14:05:01.117Z,23.07
2023-03-03T14:07:52.122Z,21.50
2023-03-03T14:10:44.175Z,22.20
2023-03-03T14:13:49.325Z,20.93
2023-03-03T14:17:01.878Z,18.80
2023-03-03T14:19:40.599Z,19.23
2023-03-03T14:22:38.134Z,22.03
2023-03-03T14:25:09.767Z,21.83
2023-03-03T14:27:48.518Z,18.80
2023-03-03T14:30:41.837Z,18.77
2023-03-03T14:33:09.122Z,27.23
2023-03-03T14:35:42.325Z,20.80
2023-03-03T14:38:12.877Z,17.20
2023-03-03T14:40:45.902Z,20.97
2023-03-03T14:43:37.225Z,15.07
2023-03-03T14:46:31.303Z,19.07
2023-03-03T14:49:04.138Z,18.43
2023-03-03T14:51:45.284Z,27.47
2023-03-03T14:54:26.676Z,17.83
2023-03-03T14:57:12.016Z,18.40
2023-03-03T14:59:40.839Z,17.10
2023-03-03T15:02:16.693Z,17.13
2023-03-03T15:04:47.053Z,19.07
2023-03-03T15:07:37.057Z,16.67
2023-03-03T15:10:07.653Z,18.17
2023-03-03T15:12:41.837Z,15.73
2023-03-03T15:15:22.270Z,16.30
2023-03-03T15:18:05.211Z,16.30
2023-03-03T15:21:32.040Z,15.00
2023-03-03T15:24:26.394Z,17.80
2023-03-03T15:27:10.282Z,20.20
2023-03-03T15:30:37.611Z,17.00
2023-03-03T15:33:59.186Z,18.50
2023-03-03T15:37:11.599Z,24.80
2023-03-03T15:40:09.245Z,17.60
2023-03-03T15:43:32.280Z,22.23
2023-03-03T15:46:23.597Z,17.53
2023-03-03T15:49:05.379Z,19.83
2023-03-03T15:52:28.288Z,19.97
2023-03-03T15:55:58.913Z,19.77
2023-03-03T15:59:21.857Z,15.83
2023-03-03T16:02:25.147Z,17.90
2023-03-03T16:05:49.466Z,18.77
2023-03-03T16:08:43.182Z,11.90
2023-03-03T16:11:38.902Z,19.40
2023-03-03T16:14:53.841Z,16.30
2023-03-03T16:17:48.892Z,14.87
2023-03-03T16:20:51.998Z,17.93
2023-03-03T16:24:39.717Z,17.70
2023-03-03T16:27:30.454Z,15.50
2023-03-03T16:30:40.004Z,17.83
2023-03-03T16:33:55.774Z,17.60
2023-03-03T16:36:51.628Z,17.00
2023-03-03T16:39:34.361Z,13.50
2023-03-03T16:42:25.954Z,15.33
2023-03-03T16:45:32.128Z,13.00
2023-03-03T16:48:32.850Z,13.10
2023-03-03T16:51:41.332Z,11.90
2023-03-03T16:54:58.375Z,8.90
2023-03-03T16:57:57.302Z,12.07
2023-03-03T17:00:34.070Z,18.80
2023-03-03T17:03:41.930Z,14.40
2023-03-03T17:06:48.826Z,18.60
2023-03-03T17:09:51.557Z,18.57
2023-03-03T17:12:45.383Z,17.47
2023-03-03T17:15:39.321Z,17.63
2023-03-03T17:18:45.193Z,16.80
2023-03-03T17:22:18.179Z,12.53
2023-03-03T17:25:22.778Z,9.43
2023-03-03T17:28:30.253Z,13.60
2023-03-03T17:31:28.990Z,12.13
2023-03-03T17:34:20.870Z,13.00
2023-03-03T17:37:43.675Z,12.97
2023-03-03T17:40:57.711Z,14.20
2023-03-03T17:44:16.276Z,12.80
2023-03-03T17:46:59.049Z,13.80
2023-03-03T17:50:08.268Z,9.77
2023-03-03T17:53:07.290Z,15.70
2023-03-03T17:56:13.788Z,13.57
2023-03-03T17:58:56.501Z,12.47
2023-03-03T18:02:26.330Z,13.13
2023-03-03T18:05:23.959Z,11.77
2023-03-03T18:08:47.883Z,15.37
2023-03-03T18:11:50.155Z,34.50
2023-03-03T18:14:40.042Z,12.33
2023-03-03T18:18:16.835Z,13.37
2023-03-03T18:21:20.929Z,16.67
2023-03-03T18:23:50.217Z,14.13
2023-03-03T18:26:38.835Z,15.77
2023-03-03T18:29:18.046Z,20.20
2023-03-03T18:32:21.535Z,21.03
2023-03-03T18:34:48.525Z,16.97
2023-03-03T18:37:30.272Z,16.37
2023-03-03T18:40:03.083Z,15.07
2023-03-03T18:42:43.759Z,12.57
2023-03-03T18:45:19.865Z,12.60
2023-03-03T18:48:13.212Z,14.43
2023-03-03T18:50:52.288Z,16.60
2023-03-03T18:53:30.921Z,15.00
2023-03-03T18:56:03.008Z,19.97
2023-03-03T18:58:42.509Z,13.43
2023-03-03T19:01:29.239Z,16.27
2023-03-03T19:04:18.392Z,15.63
2023-03-03T19:06:48.186Z,22.53
2023-03-03T19:10:01.479Z,17.07
2023-03-03T19:12:51.825Z,16.50
2023-03-03T19:15:31.173Z,16.35
2023-03-03T19:18:28.071Z,16.30
2023-03-03T19:21:21.356Z,17.92
2023-03-03T19:24:00.331Z,16.67
2023-03-03T19:26:30.260Z,18.10
2023-03-03T19:29:53.224Z,20.57
2023-03-03T19:33:17.528Z,19.83
2023-03-03T19:36:19.183Z,16.30
2023-03-03T19:39:36.093Z,21.40
2023-03-03T19:42:55.440Z,15.75
2023-03-03T19:46:02.897Z,19.13
2023-03-03T19:48:40.041Z,23.73
2023-03-03T19:51:47.681Z,23.27
2023-03-03T19:54:56.858Z,22.67
2023-03-03T19:57:49.869Z,15.73
2023-03-03T20:00:34.447Z,16.95
2023-03-03T20:03:45.810Z,16.05
2023-03-03T20:07:31.170Z,16.08
2023-03-03T20:10:29.970Z,18.50
2023-03-03T20:14:11.940Z,12.43
2023-03-03T20:16:48.185Z,12.18
2023-03-03T20:19:45.669Z,18.40
2023-03-03T20:22:52.815Z,18.42
2023-03-03T20:25:48.848Z,18.95
2023-03-03T20:29:16.164Z,20.02
2023-03-03T20:32:16.949Z,19.25
2023-03-03T20:35:52.725Z,16.88
2023-03-03T20:38:39.005Z,15.82
2023-03-03T20:41:23.552Z,16.33
2023-03-03T20:44:32.764Z,15.63
2023-03-03T20:47:54.278Z,14.45
2023-03-03T20:50:49.604Z,19.85
2023-03-03T20:54:32.728Z,20.92
2023-03-03T20:57:33.785Z,43.40
2023-03-03T21:00:38.865Z,19.17
2023-03-03T21:03:42.987Z,16.38
2023-03-03T21:06:17.675Z,18.00
2023-03-03T21:08:53.781Z,17.52
2023-03-03T21:11:42.095Z,19.92
2023-03-03T21:14:38.441Z,21.75
2023-03-03T21:17:28.691Z,17.63
2023-03-03T21:19:55.993Z,21.75
2023-03-03T21:22:23.722Z,20.33
2023-03-03T21:25:01.134Z,17.25
2023-03-03T21:27:34.373Z,21.58
2023-03-03T21:30:16.532Z,19.38
2023-03-03T21:32:48.990Z,24.08
2023-03-03T21:35:23.501Z,28.13
2023-03-03T21:37:57.658Z,20.45
2023-03-03T21:40:29.515Z,25.30
2023-03-03T21:42:59.893Z,23.00
2023-03-03T21:45:27.373Z,12.57
2023-03-03T21:47:55.021Z,17.70
2023-03-03T21:50:22.097Z,16.52
2023-03-03T21:52:50.036Z,19.13
2023-03-03T21:55:17.041Z,17.40
2023-03-03T21:57:43.890Z,12.85
2023-03-03T22:00:12.078Z,17.77
2023-03-03T22:02:38.941Z,13.27
2023-03-03T22:05:07.663Z,14.00
2023-03-03T22:07:34.803Z,15.80
2023-03-03T22:10:01.832Z,15.93
2023-03-03T22:12:28.763Z,15.05
2023-03-03T22:14:55.684Z,12.65
2023-03-03T22:17:25.365Z,15.30
2023-03-03T22:19:52.839Z,19.05
2023-03-03T22:22:19.708Z,15.05
2023-03-03T22:24:46.576Z,20.42
2023-03-03T22:27:14.282Z,21.98
2023-03-03T22:29:41.353Z,24.00
2023-03-03T22:32:08.332Z,28.65
2023-03-03T22:34:35.362Z,19.13
2023-03-03T22:37:02.287Z,18.10
2023-03-03T22:39:29.196Z,18.15
2023-03-03T22:41:56.140Z,16.30
2023-03-03T22:44:23.015Z,22.30
2023-03-03T22:46:49.856Z,16.88
2023-03-03T22:49:16.726Z,20.63
2023-03-03T22:51:43.705Z,17.00
2023-03-03T22:54:10.597Z,18.17
2023-03-03T22:56:37.470Z,16.27
2023-03-03T22:59:04.450Z,14.32
2023-03-03T23:01:31.331Z,22.55
2023-03-03T23:03:58.246Z,19.40
2023-03-03T23:06:25.100Z,15.52
2023-03-03T23:08:52.145Z,23.55
2023-03-03T23:11:19.059Z,18.60
2023-03-03T23:13:45.962Z,24.08
2023-03-03T23:16:12.852Z,21.25
2023-03-03T23:18:39.806Z,24.35
2023-03-03T23:21:06.793Z,22.00
2023-03-03T23:23:34.044Z,23.88
2023-03-03T23:26:01.012Z,18.23
2023-03-03T23:28:27.879Z,19.55
2023-03-03T23:30:54.820Z,15.30
2023-03-03T23:33:21.769Z,17.65
2023-03-03T23:35:49.740Z,30.55
2023-03-03T23:38:17.576Z,24.60
2023-03-03T23:40:46.658Z,16.05
2023-03-03T23:43:14.833Z,15.88
2023-03-03T23:45:41.823Z,17.95
2023-03-03T23:48:09.065Z,18.15
2023-03-03T23:50:39.200Z,17.20
2023-03-03T23:53:07.727Z,14.90
2023-03-03T23:55:36.212Z,15.63
2023-03-03T23:58:04.394Z,16.90
